Archival Weather

Snohomish County (Paine Fld)

Everett, Washington (KPAE)

Report from: Thursday, November 16, 2023 7:53 PM PST
Current time: Monday, June 17, 2024 1:03 AM PDT

Current weather – Weather history – Daily summaries
Weather forecast

Temperature3.9°C (39.0°F)
Dew point1.1°C (34.0°F)
Winds Calm
Visibility10 mi. (16.1 km)
Clouds Sky clear
Altimeter30.14 in.Hg (1021 mB)
Relative humidity82 %
Density altitude-1,509 ft. (-460 m)
Sea-level pressure102.1 kPa (1021 mB, 30.15 in.Hg)
Remarks Automated weather observing station with precipitation discriminator
Flight conditions Visual Meteorological Conditions
Raw dataKPAE 170353Z 00000KT 10SM CLR 04/01 A3014 RMK AO2 SLP210 T00390011
An error has occurred. This application may no longer respond until reloaded. Reload 🗙